sensor_id;sensor_type;location;lat;lon;timestamp;P1;durP1;ratioP1;P2;durP2;ratioP2
43962;SDS011;29622;45.534;9.242;2022-07-22T00:02:28;17.58;;;8.95;;
43962;SDS011;29622;45.534;9.242;2022-07-22T00:07:29;17.88;;;8.07;;
43962;SDS011;29622;45.534;9.242;2022-07-22T00:12:30;16.75;;;8.15;;
43962;SDS011;29622;45.534;9.242;2022-07-22T00:17:31;14.77;;;7.28;;
43962;SDS011;29622;45.534;9.242;2022-07-22T00:22:35;23.08;;;5.97;;
43962;SDS011;29622;45.534;9.242;2022-07-22T00:27:36;12.65;;;6.05;;
43962;SDS011;29622;45.534;9.242;2022-07-22T00:32:37;14.48;;;7.40;;
43962;SDS011;29622;45.534;9.242;2022-07-22T00:37:37;9.63;;;5.18;;
43962;SDS011;29622;45.534;9.242;2022-07-22T00:42:38;13.13;;;6.97;;
43962;SDS011;29622;45.534;9.242;2022-07-22T00:47:39;12.73;;;6.80;;
43962;SDS011;29622;45.534;9.242;2022-07-22T00:52:41;12.43;;;6.50;;
43962;SDS011;29622;45.534;9.242;2022-07-22T00:57:43;12.70;;;6.30;;
43962;SDS011;29622;45.534;9.242;2022-07-22T01:02:44;16.27;;;6.18;;
43962;SDS011;29622;45.534;9.242;2022-07-22T01:07:45;12.32;;;6.10;;
43962;SDS011;29622;45.534;9.242;2022-07-22T01:12:46;13.05;;;6.75;;
43962;SDS011;29622;45.534;9.242;2022-07-22T01:17:47;11.30;;;6.07;;
43962;SDS011;29622;45.534;9.242;2022-07-22T01:22:48;9.15;;;5.45;;
43962;SDS011;29622;45.534;9.242;2022-07-22T01:27:50;11.68;;;6.10;;
43962;SDS011;29622;45.534;9.242;2022-07-22T01:32:54;9.40;;;5.20;;
43962;SDS011;29622;45.534;9.242;2022-07-22T01:37:55;13.13;;;5.95;;
43962;SDS011;29622;45.534;9.242;2022-07-22T01:42:56;8.85;;;5.18;;
43962;SDS011;29622;45.534;9.242;2022-07-22T01:47:57;8.98;;;5.63;;
43962;SDS011;29622;45.534;9.242;2022-07-22T01:52:59;9.55;;;5.53;;
43962;SDS011;29622;45.534;9.242;2022-07-22T01:58:01;10.25;;;5.18;;
43962;SDS011;29622;45.534;9.242;2022-07-22T02:03:06;11.98;;;5.43;;
43962;SDS011;29622;45.534;9.242;2022-07-22T02:08:09;11.15;;;4.72;;
43962;SDS011;29622;45.534;9.242;2022-07-22T02:13:30;6.68;;;4.45;;
43962;SDS011;29622;45.534;9.242;2022-07-22T02:18:31;8.30;;;5.60;;
43962;SDS011;29622;45.534;9.242;2022-07-22T02:23:32;10.55;;;5.57;;
43962;SDS011;29622;45.534;9.242;2022-07-22T02:28:33;11.63;;;5.00;;
43962;SDS011;29622;45.534;9.242;2022-07-22T02:33:34;10.02;;;4.95;;
43962;SDS011;29622;45.534;9.242;2022-07-22T02:38:35;11.68;;;4.72;;
43962;SDS011;29622;45.534;9.242;2022-07-22T02:43:37;7.82;;;4.43;;
43962;SDS011;29622;45.534;9.242;2022-07-22T02:48:38;7.38;;;4.70;;
43962;SDS011;29622;45.534;9.242;2022-07-22T02:53:41;9.05;;;4.50;;
43962;SDS011;29622;45.534;9.242;2022-07-22T02:58:42;7.80;;;3.92;;
43962;SDS011;29622;45.534;9.242;2022-07-22T03:03:44;8.88;;;4.65;;
43962;SDS011;29622;45.534;9.242;2022-07-22T03:08:45;10.00;;;4.55;;
43962;SDS011;29622;45.534;9.242;2022-07-22T03:13:47;5.78;;;3.70;;
43962;SDS011;29622;45.534;9.242;2022-07-22T03:18:48;5.80;;;3.90;;
43962;SDS011;29622;45.534;9.242;2022-07-22T03:23:51;5.95;;;4.18;;
43962;SDS011;29622;45.534;9.242;2022-07-22T03:28:54;5.43;;;3.65;;
43962;SDS011;29622;45.534;9.242;2022-07-22T03:33:55;7.15;;;4.07;;
43962;SDS011;29622;45.534;9.242;2022-07-22T03:38:56;11.27;;;4.63;;
43962;SDS011;29622;45.534;9.242;2022-07-22T03:43:57;14.93;;;5.32;;
43962;SDS011;29622;45.534;9.242;2022-07-22T03:48:58;9.32;;;4.85;;
43962;SDS011;29622;45.534;9.242;2022-07-22T03:53:59;14.55;;;5.35;;
43962;SDS011;29622;45.534;9.242;2022-07-22T03:59:01;7.03;;;3.60;;
43962;SDS011;29622;45.534;9.242;2022-07-22T04:04:03;5.75;;;3.85;;
43962;SDS011;29622;45.534;9.242;2022-07-22T04:09:11;11.05;;;5.25;;
43962;SDS011;29622;45.534;9.242;2022-07-22T04:14:13;19.65;;;4.95;;
43962;SDS011;29622;45.534;9.242;2022-07-22T04:19:20;7.00;;;3.47;;
43962;SDS011;29622;45.534;9.242;2022-07-22T04:24:24;12.50;;;3.90;;
43962;SDS011;29622;45.534;9.242;2022-07-22T04:29:27;11.60;;;4.03;;
43962;SDS011;29622;45.534;9.242;2022-07-22T04:34:28;12.43;;;4.15;;
43962;SDS011;29622;45.534;9.242;2022-07-22T04:39:30;11.82;;;4.70;;
43962;SDS011;29622;45.534;9.242;2022-07-22T04:44:32;8.95;;;5.13;;
43962;SDS011;29622;45.534;9.242;2022-07-22T04:49:33;12.02;;;4.70;;
43962;SDS011;29622;45.534;9.242;2022-07-22T04:54:35;7.70;;;5.10;;
43962;SDS011;29622;45.534;9.242;2022-07-22T04:59:36;15.75;;;4.88;;
43962;SDS011;29622;45.534;9.242;2022-07-22T05:04:37;10.77;;;4.88;;
43962;SDS011;29622;45.534;9.242;2022-07-22T05:09:37;11.07;;;5.25;;
43962;SDS011;29622;45.534;9.242;2022-07-22T05:14:38;16.88;;;6.32;;
43962;SDS011;29622;45.534;9.242;2022-07-22T05:19:39;20.45;;;6.30;;
43962;SDS011;29622;45.534;9.242;2022-07-22T05:24:42;11.57;;;5.22;;
43962;SDS011;29622;45.534;9.242;2022-07-22T05:29:43;13.80;;;5.57;;
43962;SDS011;29622;45.534;9.242;2022-07-22T05:34:43;23.52;;;7.63;;
43962;SDS011;29622;45.534;9.242;2022-07-22T05:39:45;16.10;;;7.38;;
43962;SDS011;29622;45.534;9.242;2022-07-22T05:44:46;12.60;;;5.53;;
43962;SDS011;29622;45.534;9.242;2022-07-22T05:49:48;9.98;;;5.30;;
43962;SDS011;29622;45.534;9.242;2022-07-22T05:54:48;19.50;;;7.80;;
43962;SDS011;29622;45.534;9.242;2022-07-22T05:59:49;19.50;;;6.68;;
43962;SDS011;29622;45.534;9.242;2022-07-22T06:04:50;25.10;;;7.65;;
43962;SDS011;29622;45.534;9.242;2022-07-22T06:09:52;22.10;;;6.70;;
43962;SDS011;29622;45.534;9.242;2022-07-22T06:14:53;19.58;;;5.35;;
43962;SDS011;29622;45.534;9.242;2022-07-22T06:19:54;18.83;;;5.57;;
43962;SDS011;29622;45.534;9.242;2022-07-22T06:24:55;15.32;;;4.80;;
43962;SDS011;29622;45.534;9.242;2022-07-22T06:29:57;10.07;;;4.10;;
43962;SDS011;29622;45.534;9.242;2022-07-22T06:35:02;12.73;;;4.50;;
43962;SDS011;29622;45.534;9.242;2022-07-22T06:40:07;12.10;;;4.05;;
43962;SDS011;29622;45.534;9.242;2022-07-22T06:45:28;10.90;;;3.83;;
43962;SDS011;29622;45.534;9.242;2022-07-22T06:50:41;10.15;;;4.15;;
43962;SDS011;29622;45.534;9.242;2022-07-22T06:55:47;9.05;;;3.75;;
43962;SDS011;29622;45.534;9.242;2022-07-22T07:00:48;9.77;;;3.45;;
43962;SDS011;29622;45.534;9.242;2022-07-22T07:06:10;19.73;;;5.43;;
43962;SDS011;29622;45.534;9.242;2022-07-22T07:11:34;9.20;;;3.67;;
43962;SDS011;29622;45.534;9.242;2022-07-22T07:16:39;10.80;;;3.90;;
43962;SDS011;29622;45.534;9.242;2022-07-22T07:21:40;12.30;;;4.00;;
43962;SDS011;29622;45.534;9.242;2022-07-22T07:26:41;8.65;;;3.70;;
43962;SDS011;29622;45.534;9.242;2022-07-22T07:31:42;10.45;;;4.30;;
43962;SDS011;29622;45.534;9.242;2022-07-22T07:36:47;26.52;;;5.05;;
43962;SDS011;29622;45.534;9.242;2022-07-22T07:41:49;21.48;;;4.97;;
43962;SDS011;29622;45.534;9.242;2022-07-22T07:46:52;31.15;;;6.22;;
43962;SDS011;29622;45.534;9.242;2022-07-22T07:51:54;21.20;;;5.10;;
43962;SDS011;29622;45.534;9.242;2022-07-22T07:56:55;13.35;;;4.43;;
43962;SDS011;29622;45.534;9.242;2022-07-22T08:01:56;11.65;;;5.00;;
43962;SDS011;29622;45.534;9.242;2022-07-22T08:06:57;18.13;;;5.55;;
43962;SDS011;29622;45.534;9.242;2022-07-22T08:12:02;10.57;;;4.32;;
43962;SDS011;29622;45.534;9.242;2022-07-22T08:17:24;8.23;;;3.97;;
43962;SDS011;29622;45.534;9.242;2022-07-22T08:22:25;16.05;;;4.38;;
43962;SDS011;29622;45.534;9.242;2022-07-22T08:27:27;15.75;;;4.25;;
43962;SDS011;29622;45.534;9.242;2022-07-22T08:32:28;11.93;;;3.97;;
43962;SDS011;29622;45.534;9.242;2022-07-22T08:37:29;7.22;;;3.22;;
43962;SDS011;29622;45.534;9.242;2022-07-22T08:42:30;13.18;;;4.00;;
43962;SDS011;29622;45.534;9.242;2022-07-22T08:47:32;8.90;;;3.25;;
43962;SDS011;29622;45.534;9.242;2022-07-22T08:53:08;17.65;;;4.63;;
43962;SDS011;29622;45.534;9.242;2022-07-22T09:03:21;13.13;;;4.55;;
43962;SDS011;29622;45.534;9.242;2022-07-22T09:08:28;11.52;;;3.97;;
43962;SDS011;29622;45.534;9.242;2022-07-22T09:13:45;10.82;;;3.70;;
43962;SDS011;29622;45.534;9.242;2022-07-22T09:19:05;13.63;;;3.65;;
43962;SDS011;29622;45.534;9.242;2022-07-22T09:24:29;6.40;;;3.28;;
43962;SDS011;29622;45.534;9.242;2022-07-22T09:29:52;6.15;;;3.20;;
43962;SDS011;29622;45.534;9.242;2022-07-22T09:35:03;7.75;;;3.45;;
43962;SDS011;29622;45.534;9.242;2022-07-22T09:40:13;10.70;;;3.13;;
43962;SDS011;29622;45.534;9.242;2022-07-22T09:45:19;8.95;;;3.50;;
43962;SDS011;29622;45.534;9.242;2022-07-22T09:50:22;7.72;;;2.92;;
43962;SDS011;29622;45.534;9.242;2022-07-22T09:55:46;7.45;;;2.97;;
43962;SDS011;29622;45.534;9.242;2022-07-22T10:00:48;7.28;;;2.55;;
43962;SDS011;29622;45.534;9.242;2022-07-22T10:05:54;4.72;;;3.05;;
43962;SDS011;29622;45.534;9.242;2022-07-22T10:10:58;4.80;;;2.58;;
43962;SDS011;29622;45.534;9.242;2022-07-22T10:16:02;4.72;;;3.00;;
43962;SDS011;29622;45.534;9.242;2022-07-22T10:21:05;4.60;;;2.55;;
43962;SDS011;29622;45.534;9.242;2022-07-22T10:26:08;13.05;;;2.72;;
43962;SDS011;29622;45.534;9.242;2022-07-22T10:36:29;6.60;;;3.03;;
43962;SDS011;29622;45.534;9.242;2022-07-22T10:41:35;6.13;;;3.05;;
43962;SDS011;29622;45.534;9.242;2022-07-22T10:46:47;12.27;;;3.15;;
43962;SDS011;29622;45.534;9.242;2022-07-22T10:52:33;5.07;;;2.85;;
43962;SDS011;29622;45.534;9.242;2022-07-22T10:57:32;8.63;;;2.72;;
43962;SDS011;29622;45.534;9.242;2022-07-22T11:02:34;4.93;;;3.00;;
43962;SDS011;29622;45.534;9.242;2022-07-22T11:07:43;10.43;;;3.33;;
43962;SDS011;29622;45.534;9.242;2022-07-22T11:12:46;10.57;;;3.15;;
43962;SDS011;29622;45.534;9.242;2022-07-22T11:17:48;4.80;;;2.60;;
43962;SDS011;29622;45.534;9.242;2022-07-22T11:22:49;8.73;;;2.75;;
43962;SDS011;29622;45.534;9.242;2022-07-22T11:27:51;12.77;;;3.00;;
43962;SDS011;29622;45.534;9.242;2022-07-22T11:32:58;13.85;;;4.75;;
43962;SDS011;29622;45.534;9.242;2022-07-22T11:38:02;8.48;;;3.15;;
43962;SDS011;29622;45.534;9.242;2022-07-22T11:43:05;6.57;;;2.80;;
43962;SDS011;29622;45.534;9.242;2022-07-22T11:48:08;12.38;;;2.63;;
43962;SDS011;29622;45.534;9.242;2022-07-22T11:53:09;8.77;;;2.95;;
43962;SDS011;29622;45.534;9.242;2022-07-22T11:58:10;5.65;;;2.63;;
43962;SDS011;29622;45.534;9.242;2022-07-22T12:03:11;4.93;;;2.58;;
43962;SDS011;29622;45.534;9.242;2022-07-22T12:08:12;7.47;;;2.83;;
43962;SDS011;29622;45.534;9.242;2022-07-22T12:13:13;17.30;;;3.05;;
43962;SDS011;29622;45.534;9.242;2022-07-22T12:18:17;9.63;;;3.67;;
43962;SDS011;29622;45.534;9.242;2022-07-22T12:23:21;11.70;;;3.50;;
43962;SDS011;29622;45.534;9.242;2022-07-22T12:28:22;5.45;;;2.92;;
43962;SDS011;29622;45.534;9.242;2022-07-22T12:33:24;6.32;;;2.53;;
43962;SDS011;29622;45.534;9.242;2022-07-22T12:38:24;10.02;;;2.88;;
43962;SDS011;29622;45.534;9.242;2022-07-22T12:43:26;7.05;;;2.88;;
43962;SDS011;29622;45.534;9.242;2022-07-22T12:48:27;4.63;;;3.00;;
43962;SDS011;29622;45.534;9.242;2022-07-22T12:53:29;6.00;;;2.80;;
43962;SDS011;29622;45.534;9.242;2022-07-22T12:58:32;5.88;;;2.90;;
43962;SDS011;29622;45.534;9.242;2022-07-22T13:03:33;6.78;;;2.78;;
43962;SDS011;29622;45.534;9.242;2022-07-22T13:08:41;3.85;;;2.47;;
43962;SDS011;29622;45.534;9.242;2022-07-22T13:13:42;5.68;;;2.80;;
43962;SDS011;29622;45.534;9.242;2022-07-22T13:18:43;5.13;;;2.70;;
43962;SDS011;29622;45.534;9.242;2022-07-22T13:23:43;7.78;;;3.22;;
43962;SDS011;29622;45.534;9.242;2022-07-22T13:28:44;9.88;;;2.88;;
43962;SDS011;29622;45.534;9.242;2022-07-22T13:33:45;7.00;;;3.30;;
43962;SDS011;29622;45.534;9.242;2022-07-22T13:38:46;4.88;;;2.97;;
43962;SDS011;29622;45.534;9.242;2022-07-22T13:43:48;4.07;;;2.83;;
43962;SDS011;29622;45.534;9.242;2022-07-22T18:02:56;5.90;;;3.72;;
43962;SDS011;29622;45.534;9.242;2022-07-22T18:07:58;7.15;;;3.47;;
43962;SDS011;29622;45.534;9.242;2022-07-22T18:12:59;10.38;;;4.00;;
43962;SDS011;29622;45.534;9.242;2022-07-22T18:17:59;14.80;;;5.10;;
43962;SDS011;29622;45.534;9.242;2022-07-22T18:23:00;13.25;;;4.50;;
43962;SDS011;29622;45.534;9.242;2022-07-22T18:28:02;6.03;;;3.70;;
43962;SDS011;29622;45.534;9.242;2022-07-22T18:33:02;15.98;;;4.45;;
43962;SDS011;29622;45.534;9.242;2022-07-22T18:38:03;8.40;;;4.40;;
43962;SDS011;29622;45.534;9.242;2022-07-22T18:43:04;12.90;;;4.28;;
43962;SDS011;29622;45.534;9.242;2022-07-22T18:48:05;7.82;;;3.97;;
43962;SDS011;29622;45.534;9.242;2022-07-22T18:53:06;9.88;;;3.88;;
43962;SDS011;29622;45.534;9.242;2022-07-22T18:58:07;15.40;;;3.78;;
43962;SDS011;29622;45.534;9.242;2022-07-22T19:03:08;12.43;;;4.25;;
43962;SDS011;29622;45.534;9.242;2022-07-22T19:08:12;7.22;;;4.00;;
43962;SDS011;29622;45.534;9.242;2022-07-22T19:13:13;13.07;;;5.13;;
43962;SDS011;29622;45.534;9.242;2022-07-22T19:18:16;7.25;;;4.40;;
43962;SDS011;29622;45.534;9.242;2022-07-22T19:23:19;6.45;;;4.30;;
43962;SDS011;29622;45.534;9.242;2022-07-22T19:28:20;7.82;;;4.38;;
43962;SDS011;29622;45.534;9.242;2022-07-22T19:33:21;10.35;;;4.40;;
43962;SDS011;29622;45.534;9.242;2022-07-22T19:38:22;7.60;;;2.85;;
43962;SDS011;29622;45.534;9.242;2022-07-22T19:43:22;6.28;;;2.38;;
43962;SDS011;29622;45.534;9.242;2022-07-22T19:48:23;6.78;;;2.47;;
43962;SDS011;29622;45.534;9.242;2022-07-22T19:53:24;10.57;;;4.38;;
43962;SDS011;29622;45.534;9.242;2022-07-22T19:58:25;11.70;;;4.13;;
43962;SDS011;29622;45.534;9.242;2022-07-22T20:03:26;14.98;;;4.18;;
43962;SDS011;29622;45.534;9.242;2022-07-22T20:08:27;6.57;;;3.58;;
43962;SDS011;29622;45.534;9.242;2022-07-22T20:13:27;10.50;;;4.72;;
43962;SDS011;29622;45.534;9.242;2022-07-22T20:18:28;19.52;;;7.68;;
43962;SDS011;29622;45.534;9.242;2022-07-22T20:23:29;97.93;;;35.30;;
43962;SDS011;29622;45.534;9.242;2022-07-22T20:28:33;84.07;;;28.30;;
43962;SDS011;29622;45.534;9.242;2022-07-22T20:33:34;49.20;;;18.42;;
43962;SDS011;29622;45.534;9.242;2022-07-22T20:38:35;45.85;;;15.73;;
43962;SDS011;29622;45.534;9.242;2022-07-22T20:43:39;19.00;;;7.25;;
43962;SDS011;29622;45.534;9.242;2022-07-22T20:48:40;12.57;;;5.60;;
43962;SDS011;29622;45.534;9.242;2022-07-22T20:53:41;14.18;;;4.78;;
43962;SDS011;29622;45.534;9.242;2022-07-22T20:58:42;9.32;;;5.45;;
43962;SDS011;29622;45.534;9.242;2022-07-22T21:03:43;10.98;;;5.82;;
43962;SDS011;29622;45.534;9.242;2022-07-22T21:08:44;7.57;;;4.65;;
43962;SDS011;29622;45.534;9.242;2022-07-22T21:13:47;12.80;;;5.20;;
43962;SDS011;29622;45.534;9.242;2022-07-22T21:18:48;8.60;;;4.78;;
43962;SDS011;29622;45.534;9.242;2022-07-22T21:23:49;16.08;;;5.28;;
43962;SDS011;29622;45.534;9.242;2022-07-22T21:28:50;10.68;;;4.97;;
43962;SDS011;29622;45.534;9.242;2022-07-22T21:33:50;9.98;;;5.15;;
43962;SDS011;29622;45.534;9.242;2022-07-22T21:38:51;10.70;;;4.63;;
43962;SDS011;29622;45.534;9.242;2022-07-22T21:43:51;8.30;;;4.38;;
43962;SDS011;29622;45.534;9.242;2022-07-22T21:48:52;12.75;;;4.53;;
43962;SDS011;29622;45.534;9.242;2022-07-22T21:53:53;10.73;;;5.43;;
43962;SDS011;29622;45.534;9.242;2022-07-22T21:58:54;15.40;;;5.43;;
43962;SDS011;29622;45.534;9.242;2022-07-22T22:03:55;13.32;;;5.15;;
43962;SDS011;29622;45.534;9.242;2022-07-22T22:08:58;12.43;;;5.22;;
43962;SDS011;29622;45.534;9.242;2022-07-22T22:14:01;10.57;;;5.50;;
43962;SDS011;29622;45.534;9.242;2022-07-22T22:19:02;13.73;;;5.10;;
43962;SDS011;29622;45.534;9.242;2022-07-22T22:24:03;8.95;;;5.15;;
43962;SDS011;29622;45.534;9.242;2022-07-22T22:29:07;8.77;;;4.60;;
43962;SDS011;29622;45.534;9.242;2022-07-22T22:34:08;7.13;;;4.45;;
43962;SDS011;29622;45.534;9.242;2022-07-22T22:39:09;8.82;;;4.40;;
43962;SDS011;29622;45.534;9.242;2022-07-22T22:44:10;14.02;;;5.55;;
43962;SDS011;29622;45.534;9.242;2022-07-22T22:49:10;8.30;;;4.00;;
43962;SDS011;29622;45.534;9.242;2022-07-22T22:54:11;10.98;;;4.80;;
43962;SDS011;29622;45.534;9.242;2022-07-22T22:59:11;11.95;;;4.65;;
43962;SDS011;29622;45.534;9.242;2022-07-22T23:04:13;10.30;;;5.05;;
43962;SDS011;29622;45.534;9.242;2022-07-22T23:09:14;13.50;;;4.70;;
43962;SDS011;29622;45.534;9.242;2022-07-22T23:14:15;11.80;;;5.20;;
43962;SDS011;29622;45.534;9.242;2022-07-22T23:19:16;10.40;;;4.70;;
43962;SDS011;29622;45.534;9.242;2022-07-22T23:24:17;10.07;;;4.53;;
43962;SDS011;29622;45.534;9.242;2022-07-22T23:29:18;14.65;;;5.25;;
43962;SDS011;29622;45.534;9.242;2022-07-22T23:34:18;8.77;;;5.68;;
43962;SDS011;29622;45.534;9.242;2022-07-22T23:39:19;22.80;;;11.52;;
43962;SDS011;29622;45.534;9.242;2022-07-22T23:44:20;20.13;;;9.38;;
43962;SDS011;29622;45.534;9.242;2022-07-22T23:49:20;15.13;;;7.72;;
43962;SDS011;29622;45.534;9.242;2022-07-22T23:54:21;8.60;;;5.60;;
43962;SDS011;29622;45.534;9.242;2022-07-22T23:59:22;11.02;;;4.75;;
